createdAt,value
2023-01-17T00:02:12.219Z,3.59
2023-01-17T00:04:57.330Z,3.55
2023-01-17T00:07:43.683Z,3.54
2023-01-17T00:10:16.070Z,3.55
2023-01-17T00:12:53.855Z,3.56
2023-01-17T00:15:22.957Z,3.61
2023-01-17T00:17:50.668Z,3.68
2023-01-17T00:20:38.863Z,3.71
2023-01-17T00:23:38.395Z,3.74
2023-01-17T00:26:16.886Z,3.77
2023-01-17T00:28:44.658Z,3.81
2023-01-17T00:31:14.203Z,3.85
2023-01-17T00:33:40.875Z,3.89
2023-01-17T00:36:08.730Z,3.89
2023-01-17T00:38:37.284Z,3.91
2023-01-17T00:41:07.918Z,3.88
2023-01-17T00:43:53.297Z,3.91
2023-01-17T00:46:38.847Z,3.95
2023-01-17T00:49:24.566Z,3.96
2023-01-17T00:52:10.096Z,4.00
2023-01-17T00:54:55.620Z,3.95
2023-01-17T00:57:41.040Z,3.94
2023-01-17T01:00:27.046Z,3.91
2023-01-17T01:03:12.187Z,3.91
2023-01-17T01:05:57.060Z,3.90
2023-01-17T01:08:46.078Z,3.92
2023-01-17T01:11:35.280Z,3.97
2023-01-17T01:14:20.885Z,4.02
2023-01-17T01:17:06.199Z,4.06
2023-01-17T01:19:51.638Z,4.10
2023-01-17T01:22:36.543Z,4.14
2023-01-17T01:25:22.367Z,4.16
2023-01-17T01:28:07.179Z,4.15
2023-01-17T01:30:52.159Z,4.08
2023-01-17T01:33:18.708Z,4.00
2023-01-17T01:35:55.870Z,3.94
2023-01-17T01:38:25.278Z,3.92
2023-01-17T01:40:54.715Z,3.89
2023-01-17T01:43:47.007Z,3.84
2023-01-17T01:46:16.672Z,3.78
2023-01-17T01:48:53.053Z,3.75
2023-01-17T01:51:25.743Z,3.72
2023-01-17T01:53:59.804Z,3.71
2023-01-17T01:56:28.297Z,3.71
2023-01-17T01:58:57.121Z,3.69
2023-01-17T02:01:24.233Z,3.67
2023-01-17T02:03:51.221Z,3.65
2023-01-17T02:06:28.881Z,3.62
2023-01-17T02:09:00.684Z,3.59
2023-01-17T02:11:27.724Z,3.52
2023-01-17T02:13:54.642Z,3.48
2023-01-17T02:16:33.549Z,3.40
2023-01-17T02:19:41.814Z,3.31
2023-01-17T02:22:45.954Z,3.26
2023-01-17T02:25:50.478Z,3.23
2023-01-17T02:28:50.766Z,3.22
2023-01-17T02:31:27.350Z,3.28
2023-01-17T02:34:07.380Z,3.33
2023-01-17T02:36:42.133Z,3.39
2023-01-17T02:39:24.182Z,3.39
2023-01-17T02:42:02.740Z,3.34
2023-01-17T02:44:29.277Z,3.33
2023-01-17T02:46:58.026Z,3.30
2023-01-17T02:49:29.048Z,3.28
2023-01-17T02:51:58.284Z,3.28
2023-01-17T02:54:24.790Z,3.32
2023-01-17T02:56:58.513Z,3.35
2023-01-17T02:59:34.625Z,3.38
2023-01-17T03:02:28.020Z,3.41
2023-01-17T03:05:02.242Z,3.44
2023-01-17T03:07:30.507Z,3.46
2023-01-17T03:10:00.880Z,3.44
2023-01-17T03:12:33.299Z,3.41
2023-01-17T03:14:59.879Z,3.42
2023-01-17T03:17:31.956Z,3.40
2023-01-17T03:19:58.912Z,3.39
2023-01-17T03:22:25.462Z,3.36
2023-01-17T03:24:52.045Z,3.36
2023-01-17T03:27:18.661Z,3.36
2023-01-17T03:29:45.220Z,3.35
2023-01-17T03:32:11.776Z,3.35
2023-01-17T03:34:38.329Z,3.33
2023-01-17T03:37:04.949Z,3.32
2023-01-17T03:39:31.544Z,3.31
2023-01-17T03:41:58.085Z,3.36
2023-01-17T03:44:24.654Z,3.40
2023-01-17T03:46:51.199Z,3.48
2023-01-17T03:49:17.810Z,3.56
2023-01-17T03:51:44.364Z,3.63
2023-01-17T03:54:11.049Z,3.67
2023-01-17T03:56:37.627Z,3.72
2023-01-17T03:59:04.187Z,3.72
2023-01-17T04:01:30.923Z,3.74
2023-01-17T04:03:57.487Z,3.77
2023-01-17T04:06:24.047Z,3.79
2023-01-17T04:08:50.705Z,3.81
2023-01-17T04:11:17.254Z,3.84
2023-01-17T04:13:43.959Z,3.84
2023-01-17T04:16:14.525Z,3.85
2023-01-17T04:18:41.302Z,3.86
2023-01-17T04:21:08.270Z,3.86
2023-01-17T04:23:35.326Z,3.84
2023-01-17T04:26:03.645Z,3.81
2023-01-17T04:28:30.403Z,3.77
2023-01-17T04:31:00.591Z,3.67
2023-01-17T04:33:27.211Z,3.58
2023-01-17T04:35:54.328Z,3.49
2023-01-17T04:38:21.524Z,3.40
2023-01-17T04:40:48.732Z,3.32
2023-01-17T04:43:16.518Z,3.25
2023-01-17T04:45:43.212Z,3.18
2023-01-17T04:48:12.640Z,3.13
2023-01-17T04:50:39.793Z,3.12
2023-01-17T04:53:06.598Z,3.10
2023-01-17T04:55:33.149Z,3.12
2023-01-17T04:57:59.718Z,3.17
2023-01-17T05:00:26.265Z,3.22
2023-01-17T05:05:37.264Z,3.29
2023-01-17T05:08:03.935Z,3.33
2023-01-17T05:10:30.533Z,3.38
2023-01-17T05:12:58.906Z,3.46
2023-01-17T05:15:26.886Z,3.49
2023-01-17T05:17:54.030Z,3.53
2023-01-17T05:20:25.076Z,3.57
2023-01-17T05:22:56.288Z,3.62
2023-01-17T05:25:24.878Z,3.69
2023-01-17T05:27:52.005Z,3.73
2023-01-17T05:30:19.513Z,3.76
2023-01-17T05:32:50.552Z,3.79
2023-01-17T05:35:28.700Z,3.79
2023-01-17T05:37:55.591Z,3.83
2023-01-17T05:40:24.953Z,3.86
2023-01-17T05:42:53.630Z,3.88
2023-01-17T05:45:21.748Z,3.89
2023-01-17T05:47:50.408Z,3.89
2023-01-17T05:50:22.963Z,3.88
2023-01-17T05:52:58.263Z,3.97
2023-01-17T05:55:27.149Z,4.63
2023-01-17T05:57:54.699Z,5.69
2023-01-17T06:00:22.175Z,6.06
2023-01-17T06:02:49.597Z,5.94
2023-01-17T06:05:16.915Z,5.71
2023-01-17T06:07:45.299Z,5.50
2023-01-17T06:10:14.564Z,5.31
2023-01-17T06:12:42.735Z,5.15
2023-01-17T06:15:10.472Z,5.03
2023-01-17T06:17:37.353Z,4.93
2023-01-17T06:20:06.700Z,4.85
2023-01-17T06:22:33.859Z,4.80
2023-01-17T06:25:00.730Z,4.73
2023-01-17T06:27:28.546Z,4.64
2023-01-17T06:29:55.221Z,4.57
2023-01-17T06:32:22.043Z,4.49
2023-01-17T06:34:48.620Z,4.38
2023-01-17T06:37:15.151Z,4.29
2023-01-17T06:39:41.773Z,4.20
2023-01-17T06:42:08.316Z,4.14
2023-01-17T06:44:34.864Z,4.08
2023-01-17T06:47:01.513Z,4.06
2023-01-17T06:49:28.097Z,4.06
2023-01-17T06:51:54.714Z,4.06
2023-01-17T06:54:21.258Z,4.07
2023-01-17T06:56:47.799Z,4.08
2023-01-17T06:59:14.309Z,4.08
2023-01-17T07:01:41.617Z,4.08
2023-01-17T07:04:08.304Z,4.06
2023-01-17T07:06:37.710Z,4.05
2023-01-17T07:09:04.665Z,4.02
2023-01-17T07:11:31.935Z,3.97
2023-01-17T07:13:58.641Z,3.88
2023-01-17T07:16:25.307Z,3.82
2023-01-17T07:18:52.197Z,3.80
2023-01-17T07:21:19.106Z,3.80
2023-01-17T07:23:45.699Z,3.78
2023-01-17T07:26:12.266Z,3.78
2023-01-17T07:28:38.849Z,3.75
2023-01-17T07:31:08.743Z,3.73
2023-01-17T07:33:35.555Z,3.72
2023-01-17T07:36:09.374Z,3.71
2023-01-17T07:38:36.338Z,3.75
2023-01-17T07:41:03.514Z,3.79
2023-01-17T07:43:30.307Z,3.84
2023-01-17T07:45:57.066Z,3.88
2023-01-17T07:48:24.989Z,3.95
2023-01-17T07:50:53.292Z,3.99
2023-01-17T07:53:20.328Z,4.02
2023-01-17T07:55:47.095Z,4.07
2023-01-17T07:58:15.047Z,4.12
2023-01-17T08:00:44.095Z,4.16
2023-01-17T08:03:16.253Z,4.19
2023-01-17T08:05:44.290Z,4.20
2023-01-17T08:08:10.828Z,4.24
2023-01-17T08:10:37.517Z,4.24
2023-01-17T08:13:04.301Z,4.25
2023-01-17T08:15:30.868Z,4.30
2023-01-17T08:17:58.653Z,4.32
2023-01-17T08:20:27.709Z,4.36
2023-01-17T08:22:56.119Z,4.41
2023-01-17T08:25:24.219Z,4.41
2023-01-17T08:27:51.807Z,4.39
2023-01-17T08:30:19.026Z,4.36
2023-01-17T08:32:45.599Z,4.38
2023-01-17T08:35:12.237Z,4.40
2023-01-17T08:37:39.203Z,4.44
2023-01-17T08:40:07.103Z,4.48
2023-01-17T08:42:39.250Z,4.48
2023-01-17T08:45:07.823Z,4.51
2023-01-17T08:47:34.663Z,4.53
2023-01-17T08:50:01.269Z,4.55
2023-01-17T08:52:28.389Z,4.56
2023-01-17T08:54:55.080Z,4.58
2023-01-17T08:57:22.724Z,4.59
2023-01-17T08:59:49.454Z,4.60
2023-01-17T09:02:18.168Z,4.62
2023-01-17T09:04:46.055Z,4.64
2023-01-17T09:07:13.681Z,4.62
2023-01-17T09:09:40.254Z,4.60
2023-01-17T09:12:07.297Z,4.58
2023-01-17T09:14:34.874Z,4.58
2023-01-17T09:17:02.376Z,4.60
2023-01-17T09:19:29.350Z,4.60
2023-01-17T09:21:55.887Z,4.61
2023-01-17T09:24:22.501Z,4.61
2023-01-17T09:26:49.233Z,4.59
2023-01-17T09:29:17.928Z,4.57
2023-01-17T09:31:47.229Z,4.56
2023-01-17T09:34:14.502Z,4.54
2023-01-17T09:36:41.855Z,4.54
2023-01-17T09:39:11.559Z,4.58
2023-01-17T09:41:52.072Z,4.60
2023-01-17T09:44:45.400Z,4.58
2023-01-17T09:48:03.289Z,4.52
2023-01-17T09:50:34.356Z,4.50
2023-01-17T09:53:06.312Z,4.44
2023-01-17T09:55:40.120Z,4.37
2023-01-17T09:58:12.852Z,4.41
2023-01-17T10:01:09.858Z,4.42
2023-01-17T10:04:10.058Z,4.44
2023-01-17T10:06:39.592Z,4.51
2023-01-17T10:09:26.641Z,4.54
2023-01-17T10:12:07.772Z,4.55
2023-01-17T10:15:03.224Z,4.60
2023-01-17T10:17:54.797Z,4.63
2023-01-17T10:20:34.036Z,4.65
2023-01-17T10:23:22.158Z,4.64
2023-01-17T10:25:52.613Z,4.64
2023-01-17T10:28:40.374Z,4.66
2023-01-17T10:31:34.145Z,4.72
2023-01-17T10:34:13.145Z,4.77
2023-01-17T10:37:08.941Z,4.81
2023-01-17T10:39:35.834Z,4.84
2023-01-17T10:42:10.956Z,4.85
2023-01-17T10:44:50.963Z,4.86
2023-01-17T10:47:23.409Z,4.86
2023-01-17T10:49:53.020Z,4.87
2023-01-17T10:52:40.406Z,4.84
2023-01-17T10:55:10.116Z,4.89
2023-01-17T10:57:40.934Z,4.90
2023-01-17T11:00:23.755Z,4.88
2023-01-17T11:02:51.892Z,4.94
2023-01-17T11:05:28.539Z,4.95
2023-01-17T11:08:07.119Z,4.97
2023-01-17T11:10:38.009Z,4.99
2023-01-17T11:13:21.297Z,5.00
2023-01-17T11:15:50.932Z,5.09
2023-01-17T11:18:21.008Z,5.15
2023-01-17T11:20:48.678Z,5.22
2023-01-17T11:23:31.545Z,5.23
2023-01-17T11:26:02.839Z,5.24
2023-01-17T11:28:31.806Z,5.29
2023-01-17T11:31:09.456Z,5.31
2023-01-17T11:33:48.963Z,5.33
2023-01-17T11:36:24.601Z,5.42
2023-01-17T11:39:03.056Z,5.46
2023-01-17T11:41:33.926Z,5.51
2023-01-17T11:44:01.631Z,5.58
2023-01-17T11:46:29.881Z,5.61
2023-01-17T11:48:59.639Z,5.59
2023-01-17T11:51:33.796Z,5.58
2023-01-17T11:54:18.174Z,5.64
2023-01-17T11:56:46.393Z,5.74
2023-01-17T11:59:24.753Z,5.78
2023-01-17T12:02:03.289Z,5.82
2023-01-17T12:04:42.755Z,5.83
2023-01-17T12:07:33.843Z,5.87
2023-01-17T12:10:12.957Z,5.90
2023-01-17T12:13:22.967Z,5.91
2023-01-17T12:16:00.054Z,5.87
2023-01-17T12:18:42.856Z,5.91
2023-01-17T12:21:15.964Z,5.91
2023-01-17T12:23:48.296Z,5.87
2023-01-17T12:26:24.053Z,5.79
2023-01-17T12:28:53.406Z,5.75
2023-01-17T12:31:37.315Z,5.70
2023-01-17T12:34:32.223Z,5.65
2023-01-17T12:37:21.448Z,5.65
2023-01-17T12:39:56.491Z,5.61
2023-01-17T12:42:33.213Z,5.60
2023-01-17T12:45:05.924Z,5.58
2023-01-17T12:47:38.006Z,5.64
2023-01-17T12:50:28.747Z,5.73
2023-01-17T12:53:12.213Z,5.80
2023-01-17T12:55:51.053Z,5.90
2023-01-17T12:58:24.790Z,5.97
2023-01-17T13:01:00.597Z,6.01
2023-01-17T13:03:34.732Z,6.00
2023-01-17T13:06:02.887Z,6.01
2023-01-17T13:08:41.421Z,6.05
2023-01-17T13:11:28.395Z,6.05
2023-01-17T13:13:57.601Z,6.04
2023-01-17T13:16:42.003Z,6.03
2023-01-17T13:19:37.641Z,6.04
2023-01-17T13:22:11.029Z,6.09
2023-01-17T13:25:11.935Z,6.10
2023-01-17T13:27:56.626Z,6.13
2023-01-17T13:30:43.410Z,6.16
2023-01-17T13:33:16.021Z,6.20
2023-01-17T13:36:06.062Z,6.21
2023-01-17T13:38:58.444Z,6.23
2023-01-17T13:41:34.112Z,6.10
2023-01-17T13:44:20.542Z,6.12
2023-01-17T13:46:57.481Z,6.12
2023-01-17T13:49:30.299Z,6.11
2023-01-17T13:52:02.767Z,6.09
2023-01-17T13:54:32.597Z,6.07
2023-01-17T13:57:29.762Z,6.04
2023-01-17T13:59:58.846Z,6.03
2023-01-17T14:02:39.501Z,6.04
2023-01-17T14:05:38.184Z,6.03
2023-01-17T14:08:21.861Z,6.03
2023-01-17T14:10:52.196Z,6.06
2023-01-17T14:13:38.954Z,6.06
2023-01-17T14:16:24.084Z,6.00
2023-01-17T14:18:52.805Z,5.98
2023-01-17T14:21:27.653Z,5.97
2023-01-17T14:24:20.096Z,5.98
2023-01-17T14:26:48.295Z,5.99
2023-01-17T14:29:42.919Z,5.94
2023-01-17T14:32:21.809Z,5.92
2023-01-17T14:34:51.074Z,5.88
2023-01-17T14:37:20.253Z,5.85
2023-01-17T14:39:49.549Z,5.81
2023-01-17T14:42:20.960Z,5.75
2023-01-17T14:44:52.383Z,5.70
2023-01-17T14:47:19.388Z,5.72
2023-01-17T14:49:46.000Z,5.70
2023-01-17T14:52:18.004Z,5.68
2023-01-17T14:54:49.116Z,5.61
2023-01-17T14:57:26.401Z,5.63
2023-01-17T15:00:09.732Z,5.59
2023-01-17T15:02:40.627Z,5.56
2023-01-17T15:05:12.413Z,5.51
2023-01-17T15:07:39.140Z,5.48
2023-01-17T15:10:06.078Z,5.46
2023-01-17T15:12:36.844Z,5.41
2023-01-17T15:15:03.554Z,5.39
2023-01-17T15:17:30.146Z,5.34
2023-01-17T15:20:01.843Z,5.33
2023-01-17T15:22:29.847Z,5.29
2023-01-17T15:24:58.545Z,5.27
2023-01-17T15:27:26.215Z,5.24
2023-01-17T15:29:54.036Z,5.19
2023-01-17T15:32:23.405Z,5.14
2023-01-17T15:34:51.643Z,5.12
2023-01-17T15:37:27.935Z,5.09
2023-01-17T15:40:07.524Z,5.07
2023-01-17T15:42:38.774Z,5.04
2023-01-17T15:45:09.418Z,5.02
2023-01-17T15:47:38.627Z,5.00
2023-01-17T15:50:20.554Z,4.97
2023-01-17T15:52:49.635Z,5.00
2023-01-17T15:55:47.930Z,4.99
2023-01-17T15:58:29.373Z,5.03
2023-01-17T16:00:56.755Z,5.07
2023-01-17T16:03:32.202Z,5.08
2023-01-17T16:06:00.827Z,5.11
2023-01-17T16:08:33.245Z,5.13
2023-01-17T16:11:02.622Z,5.15
2023-01-17T16:13:31.777Z,5.15
2023-01-17T16:16:12.912Z,5.13
2023-01-17T16:18:40.769Z,5.14
2023-01-17T16:21:17.034Z,5.12
2023-01-17T16:23:43.662Z,5.08
2023-01-17T16:26:10.953Z,5.02
2023-01-17T16:28:38.593Z,4.98
2023-01-17T16:31:05.503Z,4.95
2023-01-17T16:33:32.086Z,4.95
2023-01-17T16:35:58.634Z,4.93
2023-01-17T16:38:25.161Z,4.91
2023-01-17T16:40:51.815Z,4.87
2023-01-17T16:43:19.790Z,4.81
2023-01-17T16:45:50.666Z,4.78
2023-01-17T16:48:19.377Z,4.75
2023-01-17T16:50:50.349Z,4.74
2023-01-17T16:53:24.662Z,4.75
2023-01-17T16:55:55.168Z,4.73
2023-01-17T16:58:21.819Z,4.71
2023-01-17T17:00:48.463Z,4.69
2023-01-17T17:03:19.471Z,4.63
2023-01-17T17:05:54.317Z,4.57
2023-01-17T17:08:20.955Z,4.50
2023-01-17T17:10:47.572Z,4.43
2023-01-17T17:13:14.183Z,4.38
2023-01-17T17:15:43.880Z,4.33
2023-01-17T17:18:18.226Z,4.22
2023-01-17T17:20:45.016Z,4.15
2023-01-17T17:23:11.658Z,4.08
2023-01-17T17:25:38.507Z,4.01
2023-01-17T17:28:06.243Z,3.96
2023-01-17T17:30:33.403Z,3.90
2023-01-17T17:33:00.195Z,3.85
2023-01-17T17:35:27.006Z,3.80
2023-01-17T17:37:54.368Z,3.76
2023-01-17T17:40:21.155Z,3.72
2023-01-17T17:42:47.694Z,3.69
2023-01-17T17:45:14.343Z,3.65
2023-01-17T17:47:40.957Z,3.60
2023-01-17T17:50:08.363Z,3.55
2023-01-17T17:52:35.025Z,3.49
2023-01-17T17:55:01.646Z,3.45
2023-01-17T17:57:28.231Z,3.43
2023-01-17T17:59:56.778Z,3.42
2023-01-17T18:02:23.453Z,3.40
2023-01-17T18:04:50.123Z,3.39
2023-01-17T18:07:16.927Z,3.35
2023-01-17T18:09:43.503Z,3.31
2023-01-17T18:12:10.356Z,3.30
2023-01-17T18:14:36.943Z,3.29
2023-01-17T18:17:03.558Z,3.28
2023-01-17T18:19:30.121Z,3.28
2023-01-17T18:21:56.799Z,3.26
2023-01-17T18:24:24.961Z,3.26
2023-01-17T18:26:53.831Z,3.30
2023-01-17T18:29:22.036Z,3.31
2023-01-17T18:31:51.151Z,3.30
2023-01-17T18:34:21.275Z,3.28
2023-01-17T18:36:47.890Z,3.25
2023-01-17T18:39:20.419Z,3.25
2023-01-17T18:41:47.281Z,3.24
2023-01-17T18:44:13.914Z,3.23
2023-01-17T18:46:42.048Z,3.26
2023-01-17T18:49:12.679Z,3.25
2023-01-17T18:51:39.315Z,3.23
2023-01-17T18:54:07.253Z,3.24
2023-01-17T18:56:34.749Z,3.26
2023-01-17T18:59:02.166Z,3.26
2023-01-17T19:01:33.637Z,3.26
2023-01-17T19:04:04.418Z,3.27
2023-01-17T19:06:34.400Z,3.27
2023-01-17T19:09:01.387Z,3.23
2023-01-17T19:11:28.965Z,3.21
2023-01-17T19:13:56.216Z,3.22
2023-01-17T19:16:28.713Z,3.20
2023-01-17T19:18:56.946Z,3.19
2023-01-17T19:21:27.549Z,3.20
2023-01-17T19:23:55.745Z,3.18
2023-01-17T19:26:27.180Z,3.16
2023-01-17T19:28:56.253Z,3.11
2023-01-17T19:31:26.063Z,3.06
2023-01-17T19:33:56.132Z,3.01
2023-01-17T19:36:26.655Z,2.98
2023-01-17T19:39:03.847Z,2.94
2023-01-17T19:41:31.552Z,2.90
2023-01-17T19:44:03.799Z,2.87
2023-01-17T19:46:30.762Z,2.87
2023-01-17T19:48:58.233Z,2.86
2023-01-17T19:51:25.564Z,2.84
2023-01-17T19:53:53.631Z,2.83
2023-01-17T19:56:23.101Z,2.84
2023-01-17T19:58:50.389Z,2.85
2023-01-17T20:01:21.982Z,2.88
2023-01-17T20:03:51.494Z,2.89
2023-01-17T20:06:20.318Z,2.92
2023-01-17T20:08:46.955Z,2.90
2023-01-17T20:11:18.498Z,2.91
2023-01-17T20:13:51.089Z,2.93
2023-01-17T20:16:18.148Z,2.94
2023-01-17T20:18:45.651Z,2.96
2023-01-17T20:21:17.294Z,2.96
2023-01-17T20:23:46.965Z,2.94
2023-01-17T20:26:19.822Z,2.91
2023-01-17T20:28:48.268Z,2.89
2023-01-17T20:31:17.004Z,2.86
2023-01-17T20:33:45.529Z,2.84
2023-01-17T20:36:15.029Z,2.85
2023-01-17T20:38:44.948Z,2.86
2023-01-17T20:41:18.435Z,2.88
2023-01-17T20:43:49.892Z,2.90
2023-01-17T20:46:17.943Z,2.92
2023-01-17T20:48:45.819Z,2.95
2023-01-17T20:51:12.936Z,2.95
2023-01-17T20:53:41.789Z,2.98
2023-01-17T20:56:09.444Z,2.97
2023-01-17T20:58:36.095Z,3.00
2023-01-17T21:01:02.784Z,3.02
2023-01-17T21:03:29.460Z,3.03
2023-01-17T21:06:04.592Z,3.02
2023-01-17T21:08:33.269Z,3.02
2023-01-17T21:11:00.015Z,3.02
2023-01-17T21:13:27.611Z,3.03
2023-01-17T21:15:54.525Z,3.03
2023-01-17T21:18:24.179Z,3.01
2023-01-17T21:20:51.203Z,2.97
2023-01-17T21:23:19.010Z,2.96
2023-01-17T21:25:58.541Z,2.93
2023-01-17T21:28:27.711Z,2.93
2023-01-17T21:30:55.142Z,2.92
2023-01-17T21:33:24.267Z,2.94
2023-01-17T21:35:51.275Z,2.92
2023-01-17T21:38:18.796Z,2.92
2023-01-17T21:40:45.874Z,2.89
2023-01-17T21:43:12.683Z,2.87
2023-01-17T21:45:40.039Z,2.86
2023-01-17T21:48:08.130Z,2.84
2023-01-17T21:50:34.705Z,2.83
2023-01-17T21:53:01.283Z,2.82
2023-01-17T21:55:46.417Z,2.80
2023-01-17T21:58:33.333Z,2.78
2023-01-17T22:01:17.770Z,2.79
2023-01-17T22:03:58.066Z,2.80
2023-01-17T22:06:28.016Z,2.80
2023-01-17T22:08:54.657Z,2.79
2023-01-17T22:11:23.948Z,2.77
2023-01-17T22:13:50.556Z,2.75
2023-01-17T22:16:19.743Z,2.74
2023-01-17T22:18:46.929Z,2.76
2023-01-17T22:21:30.567Z,2.76
2023-01-17T22:23:59.423Z,2.79
2023-01-17T22:26:28.888Z,2.79
2023-01-17T22:28:55.978Z,2.80
2023-01-17T22:31:27.217Z,2.81
2023-01-17T22:34:04.941Z,2.79
2023-01-17T22:36:34.715Z,2.78
2023-01-17T22:39:01.370Z,2.76
2023-01-17T22:41:34.617Z,2.76
2023-01-17T22:44:02.466Z,2.77
2023-01-17T22:46:31.020Z,2.78
2023-01-17T22:48:58.081Z,2.79
2023-01-17T22:51:26.634Z,2.76
2023-01-17T22:53:55.505Z,2.78
2023-01-17T22:56:24.459Z,2.78
2023-01-17T22:58:51.154Z,2.78
2023-01-17T23:01:20.526Z,2.77
2023-01-17T23:03:52.315Z,2.75
2023-01-17T23:06:25.588Z,2.73
2023-01-17T23:08:54.539Z,2.72
2023-01-17T23:11:40.812Z,2.72
2023-01-17T23:14:14.890Z,2.72
2023-01-17T23:17:04.837Z,2.71
2023-01-17T23:19:34.868Z,2.69
2023-01-17T23:22:16.328Z,2.67
2023-01-17T23:24:45.425Z,2.61
2023-01-17T23:27:42.383Z,2.57
2023-01-17T23:30:19.155Z,2.54
2023-01-17T23:32:51.117Z,2.52
2023-01-17T23:35:18.486Z,2.42
2023-01-17T23:38:03.571Z,2.42
2023-01-17T23:40:34.738Z,2.43
2023-01-17T23:43:20.607Z,2.40
2023-01-17T23:45:47.531Z,2.38
2023-01-17T23:48:14.164Z,2.33
2023-01-17T23:50:44.184Z,2.30
2023-01-17T23:53:15.399Z,2.28
2023-01-17T23:55:43.714Z,2.28
2023-01-17T23:58:11.568Z,2.26
